createdAt,value
2016-04-05T00:00:57.952Z,0
2016-04-05T00:01:57.954Z,0
2016-04-05T00:02:57.972Z,0
2016-04-05T00:03:57.991Z,0
2016-04-05T00:04:57.978Z,0
2016-04-05T00:05:58.590Z,0
2016-04-05T00:07:12.078Z,0
2016-04-05T00:07:57.986Z,0
2016-04-05T00:08:58.193Z,0
2016-04-05T00:09:57.991Z,0
2016-04-05T00:10:57.994Z,0
2016-04-05T00:11:58.029Z,0
2016-04-05T00:12:57.765Z,0
2016-04-05T00:13:58.034Z,0
2016-04-05T00:14:58.223Z,0
2016-04-05T00:15:58.039Z,0
2016-04-05T00:16:58.057Z,0
2016-04-05T00:17:58.044Z,0
2016-04-05T00:18:58.032Z,0
2016-04-05T00:19:58.253Z,0
2016-04-05T00:20:58.459Z,0
2016-04-05T00:21:58.056Z,0
2016-04-05T00:22:58.261Z,0
2016-04-05T00:23:58.279Z,0
2016-04-05T00:24:58.063Z,0
2016-04-05T00:25:58.066Z,0
2016-04-05T00:26:58.100Z,0
2016-04-05T00:27:58.087Z,0
2016-04-05T00:28:58.309Z,0
2016-04-05T00:29:57.327Z,0
2016-04-05T00:30:58.111Z,0
2016-04-05T00:31:58.364Z,0
2016-04-05T00:32:58.133Z,0
2016-04-05T00:33:58.135Z,0
2016-04-05T00:34:58.356Z,0
2016-04-05T00:35:58.327Z,0
2016-04-05T00:36:58.564Z,0
2016-04-05T00:37:58.145Z,0
2016-04-05T00:38:58.148Z,0
2016-04-05T00:39:58.166Z,0
2016-04-05T00:40:58.435Z,0
2016-04-05T00:41:58.375Z,0
2016-04-05T00:42:58.612Z,0
2016-04-05T00:43:58.005Z,0
2016-04-05T00:44:58.257Z,0
2016-04-05T00:45:58.167Z,0
2016-04-05T00:46:58.170Z,0
2016-04-05T00:47:58.172Z,0
2016-04-05T00:48:58.190Z,0
2016-04-05T00:49:58.442Z,0
2016-04-05T00:50:58.258Z,0
2016-04-05T00:51:58.245Z,0
2016-04-05T00:52:58.200Z,0
2016-04-05T00:53:58.220Z,0
2016-04-05T00:54:58.425Z,0
2016-04-05T00:55:58.225Z,0
2016-04-05T00:56:58.275Z,0
2016-04-05T00:57:57.761Z,0
2016-04-05T00:58:58.280Z,0
2016-04-05T00:59:58.438Z,0
2016-04-05T01:01:12.347Z,0
2016-04-05T01:01:58.475Z,0
2016-04-05T01:02:57.806Z,0
2016-04-05T01:03:58.247Z,0
2016-04-05T01:04:58.265Z,0
2016-04-05T01:05:58.267Z,0
2016-04-05T01:07:12.380Z,0
2016-04-05T01:07:58.319Z,0
2016-04-05T01:08:58.307Z,0
2016-04-05T01:09:58.294Z,0
2016-04-05T01:10:57.812Z,0
2016-04-05T01:11:58.549Z,0
2016-04-05T01:12:58.301Z,0
2016-04-05T01:13:58.304Z,0
2016-04-05T01:14:58.526Z,0
2016-04-05T01:15:58.325Z,0
2016-04-05T01:17:12.625Z,0
2016-04-05T01:17:58.378Z,0
2016-04-05T01:18:58.334Z,0
2016-04-05T01:19:57.837Z,0
2016-04-05T01:20:58.761Z,0
2016-04-05T01:21:58.389Z,0
2016-04-05T01:22:58.484Z,0
2016-04-05T01:24:12.675Z,0
2016-04-05T01:25:12.647Z,0
2016-04-05T01:25:58.352Z,0
2016-04-05T01:26:58.355Z,0
2016-04-05T01:27:58.826Z,0
2016-04-05T01:28:58.360Z,0
2016-04-05T01:29:58.410Z,0
2016-04-05T01:31:12.491Z,0
2016-04-05T01:31:58.384Z,0
2016-04-05T01:32:58.387Z,0
2016-04-05T01:33:58.389Z,0
2016-04-05T01:34:58.439Z,0
2016-04-05T01:35:58.410Z,0
2016-04-05T01:36:58.429Z,0
2016-04-05T01:37:58.447Z,0
2016-04-05T01:38:58.324Z,0
2016-04-05T01:39:58.625Z,0
2016-04-05T01:41:12.721Z,0
2016-04-05T01:41:58.458Z,0
2016-04-05T01:42:58.867Z,0
2016-04-05T01:43:58.619Z,0
2016-04-05T01:44:58.732Z,0
2016-04-05T01:45:59.052Z,0
2016-04-05T01:46:58.545Z,0
2016-04-05T01:47:59.782Z,0
2016-04-05T01:49:01.582Z,0
2016-04-05T01:49:58.451Z,0
2016-04-05T01:50:58.718Z,0
2016-04-05T01:51:58.753Z,0
2016-04-05T01:52:58.662Z,0
2016-04-05T01:53:58.476Z,0
2016-04-05T01:54:57.980Z,0
2016-04-05T01:55:58.482Z,0
2016-04-05T01:56:58.485Z,0
2016-04-05T01:57:58.472Z,0
2016-04-05T01:58:58.725Z,0
2016-04-05T01:59:58.572Z,0
2016-04-05T02:00:58.746Z,0
2016-04-05T02:01:58.514Z,0
2016-04-05T02:02:58.939Z,0
2016-04-05T02:03:58.020Z,0
2016-04-05T02:04:58.507Z,0
2016-04-05T02:05:58.510Z,0
2016-04-05T02:06:58.528Z,0
2016-04-05T02:07:58.567Z,0
2016-04-05T02:08:58.539Z,0
2016-04-05T02:09:58.557Z,0
2016-04-05T02:10:58.966Z,0
2016-04-05T02:11:58.530Z,0
2016-04-05T02:12:58.565Z,0
2016-04-05T02:13:58.568Z,0
2016-04-05T02:14:58.288Z,0
2016-04-05T02:15:58.541Z,0
2016-04-05T02:16:58.575Z,0
2016-04-05T02:17:58.078Z,0
2016-04-05T02:18:58.581Z,0
2016-04-05T02:19:59.005Z,0
2016-04-05T02:20:58.790Z,0
2016-04-05T02:21:58.589Z,0
2016-04-05T02:22:58.576Z,0
2016-04-05T02:23:58.610Z,0
2016-04-05T02:24:58.612Z,0
2016-04-05T02:25:58.818Z,0
2016-04-05T02:26:58.789Z,0
2016-04-05T02:27:58.589Z,0
2016-04-05T02:28:58.811Z,0
2016-04-05T02:29:58.781Z,0
2016-04-05T02:30:58.629Z,0
2016-04-05T02:32:12.944Z,0
2016-04-05T02:32:58.822Z,0
2016-04-05T02:33:58.855Z,0
2016-04-05T02:34:58.655Z,0
2016-04-05T02:35:58.627Z,0
2016-04-05T02:36:58.348Z,0
2016-04-05T02:38:12.944Z,0
2016-04-05T02:38:58.635Z,0
2016-04-05T02:39:58.637Z,0
2016-04-05T02:40:58.671Z,0
2016-04-05T02:41:58.643Z,0
2016-04-05T02:42:58.848Z,0
2016-04-05T02:44:12.758Z,0
2016-04-05T02:44:58.712Z,0
2016-04-05T02:45:58.640Z,0
2016-04-05T02:46:58.145Z,0
2016-04-05T02:47:58.635Z,0
2016-04-05T02:48:59.219Z,0
2016-04-05T02:49:59.037Z,0
2016-04-05T02:51:12.708Z,0
2016-04-05T02:51:58.815Z,0
2016-04-05T02:53:13.141Z,0
2016-04-05T02:53:58.639Z,0
2016-04-05T02:54:59.013Z,0
2016-04-05T02:55:58.811Z,0
2016-04-05T02:56:58.609Z,0
2016-04-05T02:57:58.610Z,0
2016-04-05T02:58:58.611Z,0
2016-04-05T03:00:58.661Z,0
2016-04-05T03:01:58.616Z,0
2016-04-05T03:02:58.618Z,0
2016-04-05T03:03:58.698Z,0
2016-04-05T03:04:58.653Z,0
2016-04-05T03:05:58.688Z,0
2016-04-05T03:06:58.893Z,0
2016-04-05T03:07:58.693Z,0
2016-04-05T03:08:58.664Z,0
2016-04-05T03:09:58.636Z,0
2016-04-05T03:11:58.657Z,0
2016-04-05T03:12:58.675Z,0
2016-04-05T03:13:58.710Z,0
2016-04-05T03:14:59.274Z,0
2016-04-05T03:15:58.715Z,0
2016-04-05T03:16:58.890Z,0
2016-04-05T03:17:58.704Z,0
2016-04-05T03:18:58.676Z,0
2016-04-05T03:19:58.662Z,0
2016-04-05T03:20:58.681Z,0
2016-04-05T03:21:58.903Z,0
2016-04-05T03:22:58.718Z,0
2016-04-05T03:23:59.126Z,0
2016-04-05T03:24:58.239Z,0
2016-04-05T03:25:58.757Z,0
2016-04-05T03:26:58.729Z,0
2016-04-05T03:27:58.950Z,0
2016-04-05T03:28:58.718Z,0
2016-04-05T03:29:58.815Z,0
2016-04-05T03:30:58.724Z,0
2016-04-05T03:32:13.009Z,0
2016-04-05T03:32:58.729Z,0
2016-04-05T03:33:58.717Z,0
2016-04-05T03:34:58.720Z,0
2016-04-05T03:35:58.719Z,0
2016-04-05T03:36:58.784Z,0
2016-04-05T03:37:58.724Z,0
2016-04-05T03:38:58.759Z,0
2016-04-05T03:39:58.730Z,0
2016-04-05T03:40:58.967Z,0
2016-04-05T03:41:58.954Z,0
2016-04-05T03:42:58.957Z,0
2016-04-05T03:43:58.741Z,0
2016-04-05T03:44:59.213Z,0
2016-04-05T03:45:58.746Z,0
2016-04-05T03:46:58.999Z,0
2016-04-05T03:47:58.768Z,0
2016-04-05T03:48:58.786Z,0
2016-04-05T03:49:58.757Z,0
2016-04-05T03:51:12.854Z,0
2016-04-05T03:51:58.762Z,0
2016-04-05T03:52:58.968Z,0
2016-04-05T03:53:58.784Z,0
2016-04-05T03:54:58.787Z,0
2016-04-05T03:55:58.805Z,0
2016-04-05T03:56:58.979Z,0
2016-04-05T03:57:58.779Z,0
2016-04-05T03:58:58.781Z,4
2016-04-05T03:59:58.737Z,4
2016-04-05T04:00:58.786Z,0
2016-04-05T04:01:58.836Z,4
2016-04-05T04:02:58.808Z,4
2016-04-05T04:03:59.013Z,4
2016-04-05T04:05:13.500Z,8
2016-04-05T04:05:58.800Z,8
2016-04-05T04:06:58.819Z,8
2016-04-05T04:07:59.009Z,8
2016-04-05T04:09:01.824Z,8
2016-04-05T04:09:58.827Z,12
2016-04-05T04:10:58.845Z,16
2016-04-05T04:11:58.848Z,16
2016-04-05T04:12:58.819Z,20
2016-04-05T04:14:12.931Z,24
2016-04-05T04:14:58.840Z,28
2016-04-05T04:15:58.343Z,32
2016-04-05T04:16:58.830Z,36
2016-04-05T04:17:58.832Z,44
2016-04-05T04:18:58.882Z,48
2016-04-05T04:20:12.947Z,56
2016-04-05T04:20:59.043Z,60
2016-04-05T04:21:58.859Z,68
2016-04-05T04:22:59.095Z,72
2016-04-05T04:23:58.895Z,76
2016-04-05T04:24:58.882Z,80
2016-04-05T04:25:58.416Z,84
2016-04-05T04:26:58.857Z,88
2016-04-05T04:27:58.859Z,96
2016-04-05T04:28:58.878Z,104
2016-04-05T04:29:58.864Z,116
2016-04-05T04:30:58.945Z,124
2016-04-05T04:31:59.276Z,136
2016-04-05T04:32:58.889Z,148
2016-04-05T04:33:58.892Z,160
2016-04-05T04:34:58.894Z,172
2016-04-05T04:35:59.099Z,192
2016-04-05T04:36:59.118Z,212
2016-04-05T04:37:59.136Z,236
2016-04-05T04:39:13.405Z,272
2016-04-05T04:39:58.423Z,296
2016-04-05T04:40:59.113Z,328
2016-04-05T04:41:58.913Z,364
2016-04-05T04:43:13.666Z,404
2016-04-05T04:43:59.339Z,432
2016-04-05T04:44:59.171Z,476
2016-04-05T04:45:58.924Z,520
2016-04-05T04:46:58.958Z,564
2016-04-05T04:47:58.929Z,596
2016-04-05T04:48:58.916Z,628
2016-04-05T04:49:59.184Z,668
2016-04-05T04:50:59.140Z,720
2016-04-05T04:51:58.955Z,772
2016-04-05T04:52:59.145Z,828
2016-04-05T04:53:59.149Z,928
2016-04-05T04:54:58.979Z,1064
2016-04-05T04:55:58.965Z,1208
2016-04-05T04:56:58.969Z,1316
2016-04-05T04:57:58.987Z,1396
2016-04-05T04:58:59.380Z,1452
2016-04-05T04:59:59.179Z,1484
2016-04-05T05:00:58.964Z,1484
2016-04-05T05:01:59.013Z,1484
2016-04-05T05:02:59.000Z,1512
2016-04-05T05:03:59.003Z,1560
2016-04-05T05:04:59.209Z,1592
2016-04-05T05:05:59.039Z,1608
2016-04-05T05:06:59.230Z,1640
2016-04-05T05:07:59.014Z,1664
2016-04-05T05:08:58.282Z,1676
2016-04-05T05:10:13.097Z,1708
2016-04-05T05:10:58.272Z,1748
2016-04-05T05:11:59.025Z,1836
2016-04-05T05:12:59.042Z,1964
2016-04-05T05:13:59.045Z,2132
2016-04-05T05:14:59.017Z,2360
2016-04-05T05:15:59.036Z,2652
2016-04-05T05:16:59.022Z,2972
2016-04-05T05:17:59.024Z,3276
2016-04-05T05:18:59.028Z,3560
2016-04-05T05:19:59.046Z,3752
2016-04-05T05:20:59.048Z,3852
2016-04-05T05:21:59.333Z,3900
2016-04-05T05:22:59.054Z,3896
2016-04-05T05:23:59.260Z,3888
2016-04-05T05:24:59.075Z,3856
2016-04-05T05:26:13.156Z,3816
2016-04-05T05:26:59.471Z,3800
2016-04-05T05:27:58.599Z,3788
2016-04-05T05:28:59.258Z,3788
2016-04-05T05:29:59.073Z,3788
2016-04-05T05:30:59.279Z,3772
2016-04-05T05:31:59.109Z,3756
2016-04-05T05:32:59.518Z,3712
2016-04-05T05:33:58.615Z,3628
2016-04-05T05:35:13.414Z,3548
2016-04-05T05:35:59.104Z,3464
2016-04-05T05:36:59.107Z,3256
2016-04-05T05:37:59.125Z,3068
2016-04-05T05:39:13.442Z,2884
2016-04-05T05:39:59.131Z,2792
2016-04-05T05:40:59.102Z,2704
2016-04-05T05:42:28.121Z,2656
2016-04-05T05:43:59.158Z,2712
2016-04-05T05:44:59.129Z,2812
2016-04-05T05:45:59.131Z,2968
2016-04-05T05:46:59.166Z,3180
2016-04-05T05:47:59.136Z,3552
2016-04-05T05:48:59.624Z,3900
2016-04-05T05:49:59.595Z,4152
2016-04-05T05:50:59.160Z,4396
2016-04-05T05:51:59.147Z,4532
2016-04-05T05:52:59.182Z,4616
2016-04-05T05:53:59.528Z,4676
2016-04-05T05:54:59.609Z,4752
2016-04-05T05:55:59.174Z,4816
2016-04-05T05:56:59.193Z,4876
2016-04-05T05:57:59.585Z,4924
2016-04-05T05:58:59.604Z,4968
2016-04-05T05:59:59.201Z,5004
2016-04-05T06:00:59.485Z,5044
2016-04-05T06:01:59.206Z,5084
2016-04-05T06:02:59.614Z,5156
2016-04-05T06:03:59.649Z,5224
2016-04-05T06:04:59.214Z,5280
2016-04-05T06:05:59.450Z,5352
2016-04-05T06:06:59.220Z,5396
2016-04-05T06:07:59.222Z,5424
2016-04-05T06:08:59.568Z,5464
2016-04-05T06:09:59.259Z,5496
2016-04-05T06:10:59.464Z,5548
2016-04-05T06:11:59.280Z,5660
2016-04-05T06:12:59.642Z,5728
2016-04-05T06:14:13.550Z,5764
2016-04-05T06:14:59.256Z,5804
2016-04-05T06:16:59.261Z,5892
2016-04-05T06:17:59.311Z,5928
2016-04-05T06:19:13.361Z,5976
2016-04-05T06:19:59.379Z,6016
2016-04-05T06:20:59.304Z,6060
2016-04-05T06:21:59.478Z,6104
2016-04-05T06:22:59.685Z,6144
2016-04-05T06:23:59.672Z,6212
2016-04-05T06:24:59.502Z,6276
2016-04-05T06:25:59.504Z,6348
2016-04-05T06:26:59.352Z,6408
2016-04-05T06:27:59.260Z,6440
2016-04-05T06:28:59.325Z,6472
2016-04-05T06:29:59.985Z,6512
2016-04-05T06:30:59.331Z,6532
2016-04-05T06:31:59.380Z,6520
2016-04-05T06:32:59.351Z,6544
2016-04-05T06:33:59.354Z,6560
2016-04-05T06:34:59.451Z,6616
2016-04-05T06:35:59.359Z,6660
2016-04-05T06:36:59.362Z,6688
2016-04-05T06:37:59.381Z,6704
2016-04-05T06:38:59.384Z,6724
2016-04-05T06:39:59.370Z,6736
2016-04-05T06:40:59.389Z,6736
2016-04-05T06:41:59.392Z,6764
2016-04-05T06:42:59.394Z,6948
2016-04-05T06:43:59.412Z,7156
2016-04-05T06:44:59.431Z,7112
2016-04-05T06:46:00.434Z,7036
2016-04-05T06:46:59.670Z,7060
2016-04-05T06:47:59.422Z,7176
2016-04-05T06:49:00.255Z,7168
2016-04-05T06:49:59.428Z,7068
2016-04-05T06:50:59.478Z,6972
2016-04-05T06:51:59.669Z,6956
2016-04-05T06:53:00.390Z,6964
2016-04-05T06:54:00.471Z,6996
2016-04-05T06:54:59.599Z,7184
2016-04-05T06:56:00.726Z,7080
2016-04-05T06:57:14.026Z,7100
2016-04-05T06:58:13.575Z,7320
2016-04-05T06:58:59.749Z,7228
2016-04-05T07:00:59.693Z,7296
2016-04-05T07:01:59.679Z,7040
2016-04-05T07:02:59.792Z,6788
2016-04-05T07:03:59.982Z,6700
2016-04-05T07:04:59.937Z,6492
2016-04-05T07:05:59.831Z,6332
2016-04-05T07:06:59.428Z,6164
2016-04-05T07:07:58.572Z,6092
2016-04-05T07:09:13.903Z,6368
2016-04-05T07:10:00.047Z,6668
2016-04-05T07:10:59.893Z,6920
2016-04-05T07:13:00.758Z,7596
2016-04-05T07:14:00.964Z,7424
2016-04-05T07:15:00.404Z,7176
2016-04-05T07:16:13.782Z,7788
2016-04-05T07:16:59.847Z,7340
2016-04-05T07:17:59.928Z,7248
2016-04-05T07:19:00.071Z,7384
2016-04-05T07:20:00.230Z,7840
2016-04-05T07:21:00.264Z,7648
2016-04-05T07:21:59.907Z,8148
2016-04-05T07:22:59.722Z,8396
2016-04-05T07:23:59.210Z,8016
2016-04-05T07:24:59.681Z,7636
2016-04-05T07:25:59.684Z,7392
2016-04-05T07:26:59.686Z,7384
2016-04-05T07:28:14.048Z,7456
2016-04-05T07:28:59.879Z,7480
2016-04-05T07:29:59.490Z,7556
2016-04-05T07:32:00.184Z,7556
2016-04-05T07:32:59.920Z,7716
2016-04-05T07:33:59.283Z,7708
2016-04-05T07:34:59.770Z,7556
2016-04-05T07:36:00.211Z,7648
2016-04-05T07:37:00.166Z,7632
2016-04-05T07:38:14.217Z,8432
2016-04-05T07:38:59.953Z,12692
2016-04-05T07:40:13.861Z,10252
2016-04-05T07:40:59.817Z,9464
2016-04-05T07:41:59.789Z,8692
2016-04-05T07:42:59.839Z,9692
2016-04-05T07:44:00.028Z,10472
2016-04-05T07:45:00.031Z,8816
2016-04-05T07:46:00.019Z,7996
2016-04-05T07:46:59.833Z,7568
2016-04-05T07:47:59.852Z,7524
2016-04-05T07:48:59.871Z,7680
2016-04-05T07:50:00.467Z,7552
2016-04-05T07:50:59.376Z,7400
2016-04-05T07:51:59.863Z,7528
2016-04-05T07:52:59.866Z,7516
2016-04-05T07:53:59.587Z,7500
2016-04-05T07:54:59.887Z,7444
2016-04-05T07:55:59.905Z,7352
2016-04-05T07:57:14.001Z,7372
2016-04-05T07:57:59.410Z,7624
2016-04-05T07:59:14.023Z,7524
2016-04-05T08:00:14.025Z,7392
2016-04-05T08:01:00.121Z,7460
2016-04-05T08:02:00.201Z,7408
2016-04-05T08:02:59.987Z,7520
2016-04-05T08:03:59.989Z,7496
2016-04-05T08:04:59.976Z,7636
2016-04-05T08:06:00.401Z,7676
2016-04-05T08:07:00.200Z,8284
2016-04-05T08:08:00.422Z,8132
2016-04-05T08:08:59.925Z,7880
2016-04-05T08:10:00.223Z,7740
2016-04-05T08:11:00.226Z,7788
2016-04-05T08:12:00.041Z,7820
2016-04-05T08:13:00.045Z,7852
2016-04-05T08:14:00.063Z,7960
2016-04-05T08:15:00.097Z,8052
2016-04-05T08:16:00.068Z,8144
2016-04-05T08:17:00.071Z,8216
2016-04-05T08:18:00.339Z,8124
2016-04-05T08:19:00.107Z,7856
2016-04-05T08:20:00.095Z,8176
2016-04-05T08:21:00.144Z,8436
2016-04-05T08:22:00.130Z,8608
2016-04-05T08:23:00.118Z,8756
2016-04-05T08:24:00.135Z,8700
2016-04-05T08:25:00.139Z,8648
2016-04-05T08:26:00.157Z,8604
2016-04-05T08:27:00.160Z,8528
2016-04-05T08:28:00.163Z,8456
2016-04-05T08:29:00.196Z,8376
2016-04-05T08:30:00.184Z,8308
2016-04-05T08:31:00.202Z,8232
2016-04-05T08:31:59.907Z,8256
2016-04-05T08:33:00.223Z,8348
2016-04-05T08:34:00.148Z,8216
2016-04-05T08:35:00.260Z,8212
2016-04-05T08:36:00.262Z,8468
2016-04-05T08:37:00.234Z,8384
2016-04-05T08:38:00.267Z,8132
2016-04-05T08:39:00.270Z,7988
2016-04-05T08:40:00.273Z,7940
2016-04-05T08:41:00.916Z,7936
2016-04-05T08:43:00.344Z,7364
2016-04-05T08:44:14.814Z,6908
2016-04-05T08:45:00.333Z,6928
2016-04-05T08:46:00.633Z,7180
2016-04-05T08:47:00.355Z,7352
2016-04-05T08:48:00.575Z,7600
2016-04-05T08:49:00.564Z,7600
2016-04-05T08:50:00.566Z,7560
2016-04-05T08:51:00.583Z,7536
2016-04-05T08:52:00.430Z,7488
2016-04-05T08:53:00.635Z,7444
2016-04-05T08:54:00.514Z,7436
2016-04-05T08:55:00.657Z,7408
2016-04-05T08:56:00.457Z,7388
2016-04-05T08:57:00.632Z,7380
2016-04-05T08:58:00.462Z,7412
2016-04-05T08:59:00.449Z,7336
2016-04-05T09:00:00.483Z,7392
2016-04-05T09:01:00.485Z,7356
2016-04-05T09:02:00.488Z,7332
2016-04-05T09:03:00.507Z,7392
2016-04-05T09:04:00.729Z,7308
2016-04-05T09:05:00.700Z,7408
2016-04-05T09:06:00.515Z,7352
2016-04-05T09:06:59.781Z,7392
2016-04-05T09:08:01.145Z,7428
2016-04-05T09:10:00.434Z,7652
2016-04-05T09:11:00.581Z,7660
2016-04-05T09:12:14.708Z,7360
2016-04-05T09:13:01.039Z,7436
2016-04-05T09:14:00.635Z,7412
2016-04-05T09:15:00.825Z,7444
2016-04-05T09:16:00.656Z,7476
2016-04-05T09:17:01.049Z,7528
2016-04-05T09:18:00.646Z,7544
2016-04-05T09:19:14.961Z,7708
2016-04-05T09:20:00.886Z,7776
2016-04-05T09:21:00.683Z,7776
2016-04-05T09:22:00.701Z,7944
2016-04-05T09:23:00.704Z,7688
2016-04-05T09:24:00.707Z,7672
2016-04-05T09:25:00.740Z,7716
2016-04-05T09:26:01.167Z,7740
2016-04-05T09:27:00.776Z,7740
2016-04-05T09:28:00.264Z,7736
2016-04-05T09:29:01.207Z,7772
2016-04-05T09:30:00.785Z,7756
2016-04-05T09:31:00.693Z,7712
2016-04-05T09:32:00.806Z,7664
2016-04-05T09:33:00.793Z,7592
2016-04-05T09:34:00.858Z,7576
2016-04-05T09:35:00.861Z,7760
2016-04-05T09:36:00.848Z,7628
2016-04-05T09:37:01.041Z,7720
2016-04-05T09:38:00.870Z,8092
2016-04-05T09:39:00.872Z,7776
2016-04-05T09:40:01.298Z,7808
2016-04-05T09:41:01.130Z,7860
2016-04-05T09:42:00.895Z,8056
2016-04-05T09:43:00.897Z,7916
2016-04-05T09:44:01.120Z,7960
2016-04-05T09:45:00.934Z,7872
2016-04-05T09:46:01.689Z,7876
2016-04-05T09:47:00.955Z,7916
2016-04-05T09:48:01.005Z,7920
2016-04-05T09:49:00.976Z,7896
2016-04-05T09:51:01.030Z,7844
2016-04-05T09:52:01.032Z,7840
2016-04-05T09:53:01.018Z,7788
2016-04-05T09:54:01.038Z,7852
2016-04-05T09:55:01.290Z,7792
2016-04-05T09:56:01.293Z,7848
2016-04-05T09:57:01.107Z,7984
2016-04-05T09:58:01.094Z,7964
2016-04-05T09:59:01.129Z,8064
2016-04-05T10:00:01.115Z,8076
2016-04-05T10:01:01.274Z,8024
2016-04-05T10:02:01.136Z,8076
2016-04-05T10:03:15.251Z,8044
2016-04-05T10:04:01.376Z,8000
2016-04-05T10:05:01.160Z,7956
2016-04-05T10:06:01.178Z,7952
2016-04-05T10:07:01.400Z,7928
2016-04-05T10:08:01.230Z,8032
2016-04-05T10:09:01.217Z,8188
2016-04-05T10:10:01.220Z,8396
2016-04-05T10:11:01.238Z,8388
2016-04-05T10:12:01.288Z,8836
2016-04-05T10:13:01.463Z,8540
2016-04-05T10:14:00.887Z,8608
2016-04-05T10:15:15.581Z,8452
2016-04-05T10:16:01.565Z,8476
2016-04-05T10:17:01.052Z,8224
2016-04-05T10:18:01.320Z,8260
2016-04-05T10:19:01.370Z,8164
2016-04-05T10:20:02.000Z,8320
2016-04-05T10:21:01.578Z,8412
2016-04-05T10:22:15.693Z,8652
2016-04-05T10:23:15.711Z,8492
2016-04-05T10:24:00.961Z,8352
2016-04-05T10:25:01.432Z,8404
2016-04-05T10:26:00.967Z,8404
2016-04-05T10:27:01.454Z,8584
2016-04-05T10:28:01.504Z,8388
2016-04-05T10:29:01.507Z,8076
2016-04-05T10:30:01.540Z,7940
2016-04-05T10:31:01.480Z,8204
2016-04-05T10:32:15.610Z,8408
2016-04-05T10:33:03.035Z,8448
2016-04-05T10:34:01.520Z,8280
2016-04-05T10:35:01.538Z,8128
2016-04-05T10:36:01.809Z,8056
2016-04-05T10:37:01.842Z,8364
2016-04-05T10:38:01.608Z,8384
2016-04-05T10:39:01.611Z,8152
2016-04-05T10:40:02.006Z,8568
2016-04-05T10:41:01.694Z,8328
2016-04-05T10:42:01.666Z,7852
2016-04-05T10:43:01.669Z,8268
2016-04-05T10:44:01.686Z,7756
2016-04-05T10:45:01.675Z,7760
2016-04-05T10:46:01.723Z,7808
2016-04-05T10:47:01.711Z,7708
2016-04-05T10:48:01.713Z,7692
2016-04-05T10:49:01.747Z,8104
2016-04-05T10:50:02.143Z,7872
2016-04-05T10:51:01.315Z,7748
2016-04-05T10:52:01.771Z,7788
2016-04-05T10:53:02.260Z,7832
2016-04-05T10:54:01.857Z,7776
2016-04-05T10:55:01.859Z,7884
2016-04-05T10:56:02.035Z,7980
2016-04-05T10:57:01.865Z,8308
2016-04-05T10:58:02.352Z,7948
2016-04-05T10:59:01.886Z,8024
2016-04-05T11:00:01.889Z,8280
2016-04-05T11:01:01.891Z,8312
2016-04-05T11:02:02.160Z,8044
2016-04-05T11:03:01.943Z,8144
2016-04-05T11:04:01.979Z,8220
2016-04-05T11:07:02.080Z,8200
2016-04-05T11:08:02.037Z,8200
2016-04-05T11:09:02.020Z,8688
2016-04-05T11:10:02.210Z,8520
2016-04-05T11:11:02.026Z,8668
2016-04-05T11:12:02.044Z,8808
2016-04-05T11:13:02.078Z,8552
2016-04-05T11:14:02.112Z,8768
2016-04-05T11:15:02.099Z,8656
2016-04-05T11:16:02.102Z,8744
2016-04-05T11:17:02.354Z,8740
2016-04-05T11:18:02.326Z,8784
2016-04-05T11:19:02.376Z,8860
2016-04-05T11:20:02.159Z,9012
2016-04-05T11:21:02.209Z,9012
2016-04-05T11:22:02.228Z,9072
2016-04-05T11:23:02.215Z,8920
2016-04-05T11:24:02.233Z,8752
2016-04-05T11:25:02.235Z,8796
2016-04-05T11:26:02.457Z,8544
2016-04-05T11:27:16.663Z,8456
2016-04-05T11:28:02.494Z,8376
2016-04-05T11:29:02.497Z,8404
2016-04-05T11:30:01.809Z,8364
2016-04-05T11:31:02.283Z,8420
2016-04-05T11:32:02.333Z,8360
2016-04-05T11:33:02.569Z,8320
2016-04-05T11:34:02.494Z,8296
2016-04-05T11:35:02.810Z,8220
2016-04-05T11:36:01.935Z,8136
2016-04-05T11:37:02.424Z,8140
2016-04-05T11:38:02.442Z,8280
2016-04-05T11:39:03.257Z,8416
2016-04-05T11:40:16.573Z,8568
2016-04-05T11:41:02.497Z,8860
2016-04-05T11:42:02.484Z,8692
2016-04-05T11:43:02.517Z,8748
2016-04-05T11:44:02.551Z,8756
2016-04-05T11:45:02.554Z,8752
2016-04-05T11:46:02.541Z,8776
2016-04-05T11:47:02.826Z,8680
2016-04-05T11:48:16.719Z,8736
2016-04-05T11:49:03.034Z,8700
2016-04-05T11:50:02.677Z,8800
2016-04-05T11:51:03.287Z,8832
2016-04-05T11:52:02.657Z,8896
2016-04-05T11:53:02.650Z,8960
2016-04-05T11:54:02.785Z,8968
2016-04-05T11:55:16.966Z,8980
2016-04-05T11:56:02.883Z,8984
2016-04-05T11:57:02.930Z,8972
2016-04-05T11:58:02.836Z,8928
2016-04-05T11:59:02.945Z,8860
2016-04-05T12:00:16.804Z,8664
2016-04-05T12:01:02.742Z,8620
2016-04-05T12:02:03.272Z,8584
2016-04-05T12:03:16.370Z,8632
2016-04-05T12:04:17.339Z,8656
2016-04-05T12:05:02.871Z,8664
2016-04-05T12:06:13.609Z,8528
2016-04-05T12:07:19.064Z,8504
2016-04-05T12:08:02.845Z,8412
2016-04-05T12:09:02.863Z,8372
2016-04-05T12:10:02.896Z,8452
2016-04-05T12:11:10.386Z,8496
2016-04-05T12:12:02.167Z,8400
2016-04-05T12:13:02.920Z,8336
2016-04-05T12:14:02.453Z,8372
2016-04-05T12:15:02.956Z,8460
2016-04-05T12:17:03.195Z,8632
2016-04-05T12:18:03.011Z,8712
2016-04-05T12:19:03.030Z,8696
2016-04-05T12:20:03.064Z,8684
2016-04-05T12:21:03.488Z,8728
2016-04-05T12:22:03.069Z,8760
2016-04-05T12:23:03.086Z,8784
2016-04-05T12:24:03.121Z,8776
2016-04-05T12:25:03.139Z,8696
2016-04-05T12:26:03.142Z,8660
2016-04-05T12:27:03.488Z,8660
2016-04-05T12:28:03.382Z,8744
2016-04-05T12:29:17.294Z,8760
2016-04-05T12:30:03.216Z,8752
2016-04-05T12:31:03.218Z,8748
2016-04-05T12:32:03.440Z,8652
2016-04-05T12:33:03.285Z,8744
2016-04-05T12:34:03.273Z,8912
2016-04-05T12:35:03.322Z,8980
2016-04-05T12:36:03.309Z,8956
2016-04-05T12:37:03.343Z,8772
2016-04-05T12:38:03.956Z,8616
2016-04-05T12:39:03.584Z,8636
2016-04-05T12:40:03.383Z,8916
2016-04-05T12:41:03.401Z,8912
2016-04-05T12:42:03.434Z,9068
2016-04-05T12:43:03.437Z,9472
2016-04-05T12:44:03.472Z,9804
2016-04-05T12:45:03.928Z,10052
2016-04-05T12:46:03.899Z,10304
2016-04-05T12:47:03.511Z,10500
2016-04-05T12:48:03.575Z,10672
2016-04-05T12:49:03.454Z,10840
2016-04-05T12:50:03.692Z,10932
2016-04-05T12:51:04.506Z,11180
2016-04-05T12:52:04.009Z,11392
2016-04-05T12:53:03.637Z,11744
2016-04-05T12:54:03.670Z,12068
2016-04-05T12:55:03.658Z,12276
2016-04-05T12:56:03.675Z,12388
2016-04-05T12:57:03.741Z,12244
2016-04-05T12:58:03.727Z,12000
2016-04-05T12:59:03.919Z,11940
2016-04-05T13:00:04.593Z,11868
2016-04-05T13:01:05.220Z,11616
2016-04-05T13:02:04.316Z,11432
2016-04-05T13:03:03.804Z,11364
2016-04-05T13:04:03.853Z,11252
2016-04-05T13:05:03.856Z,11016
2016-04-05T13:06:03.906Z,10700
2016-04-05T13:07:05.345Z,10412
2016-04-05T13:08:04.098Z,10408
2016-04-05T13:09:04.836Z,10376
2016-04-05T13:10:04.448Z,10476
2016-04-05T13:11:03.982Z,10108
2016-04-05T13:12:04.203Z,10100
2016-04-05T13:13:03.987Z,10388
2016-04-05T13:14:05.303Z,10552
2016-04-05T13:15:04.540Z,10692
2016-04-05T13:16:07.091Z,10660
2016-04-05T13:17:04.403Z,10564
2016-04-05T13:18:04.142Z,10532
2016-04-05T13:19:04.112Z,10648
2016-04-05T13:20:04.600Z,11112
2016-04-05T13:21:04.149Z,11104
2016-04-05T13:22:04.152Z,10944
2016-04-05T13:23:04.170Z,10672
2016-04-05T13:24:04.220Z,10420
2016-04-05T13:25:04.597Z,10548
2016-04-05T13:26:04.256Z,10820
2016-04-05T13:27:04.462Z,11416
2016-04-05T13:28:04.466Z,12452
2016-04-05T13:29:04.311Z,12924
2016-04-05T13:30:18.410Z,12976
2016-04-05T13:31:04.535Z,13060
2016-04-05T13:32:04.335Z,12888
2016-04-05T13:33:04.354Z,12532
2016-04-05T13:34:18.499Z,12276
2016-04-05T13:35:04.437Z,12232
2016-04-05T13:36:04.627Z,12316
2016-04-05T13:37:04.661Z,12404
2016-04-05T13:38:04.445Z,12240
2016-04-05T13:39:04.510Z,12244
2016-04-05T13:40:04.528Z,12212
2016-04-05T13:41:04.516Z,12220
2016-04-05T13:42:04.737Z,12300
2016-04-05T13:43:18.679Z,12364
2016-04-05T13:44:04.586Z,12368
2016-04-05T13:45:04.604Z,12548
2016-04-05T13:46:04.607Z,12596
2016-04-05T13:48:04.848Z,11664
2016-04-05T13:49:04.647Z,11152
2016-04-05T13:50:04.821Z,10792
2016-04-05T13:51:04.698Z,10564
2016-04-05T13:52:04.920Z,10456
2016-04-05T13:53:04.735Z,10392
2016-04-05T13:54:04.754Z,10268
2016-04-05T13:55:04.772Z,10092
2016-04-05T13:56:04.775Z,9884
2016-04-05T13:57:04.808Z,9696